Time;durP1;ratioP1;P1;durP2;ratioP2;P2;SDS_P1;SDS_P2;PMS_P1;PMS_P2;Temp;Humidity;BMP_temperature;BMP_pressure;BME280_temperature;BME280_humidity;BME280_pressure;Samples;Min_cycle;Max_cycle;Signal;HPM_P1;HPM_P2
2023/04/22 00:02:07;;;;;;;10.43;4.57;;;13.30;1.00;;;;;;4998120;28;20828;-53
2023/04/22 00:04:33;;;;;;;9.47;4.40;;;13.10;99.90;;;;;;4998939;28;20412;-53
2023/04/22 00:06:59;;;;;;;10.60;5.15;;;12.90;99.90;;;;;;5000079;28;20389;-55
2023/04/22 00:09:24;;;;;;;10.30;5.00;;;12.90;99.90;;;;;;5002789;28;20412;-53
2023/04/22 00:11:50;;;;;;;11.10;5.35;;;12.90;1.00;;;;;;5001114;28;20429;-53
2023/04/22 00:14:16;;;;;;;9.52;4.72;;;13.00;1.00;;;;;;5001252;28;20432;-54
2023/04/22 00:16:42;;;;;;;11.00;5.30;;;12.90;1.00;;;;;;5001720;28;20519;-52
2023/04/22 00:19:07;;;;;;;10.27;5.05;;;13.00;1.00;;;;;;5001171;28;20397;-53
2023/04/22 00:21:33;;;;;;;10.53;4.93;;;13.00;1.00;;;;;;5001245;28;20715;-53
2023/04/22 00:23:59;;;;;;;10.90;5.20;;;13.00;99.90;;;;;;5000707;28;20486;-53
2023/04/22 00:26:24;;;;;;;11.23;5.00;;;13.10;55.90;;;;;;5003139;28;20399;-51
2023/04/22 00:28:50;;;;;;;12.70;5.10;;;13.10;1.00;;;;;;5000488;28;20434;-51
2023/04/22 00:31:15;;;;;;;10.05;4.68;;;13.10;1.00;;;;;;5001129;28;20755;-52
2023/04/22 00:33:41;;;;;;;12.47;5.23;;;12.90;99.90;;;;;;5001525;28;20408;-51
2023/04/22 00:36:07;;;;;;;11.43;4.60;;;12.90;1.00;;;;;;5000861;28;20397;-52
2023/04/22 00:38:32;;;;;;;12.55;5.15;;;12.80;1.00;;;;;;4999362;28;20741;-52
2023/04/22 00:40:58;;;;;;;10.67;5.07;;;12.70;94.40;;;;;;5001270;28;20496;-52
2023/04/22 00:43:24;;;;;;;10.82;5.22;;;12.70;99.90;;;;;;4999343;28;20912;-52
2023/04/22 00:45:51;;;;;;;10.03;4.70;;;12.70;99.90;;;;;;4999672;28;20505;-52
2023/04/22 00:48:17;;;;;;;10.55;5.05;;;12.50;1.00;;;;;;5000127;28;20393;-53
2023/04/22 00:50:43;;;;;;;11.40;5.80;;;12.50;1.00;;;;;;5000453;28;20775;-51
2023/04/22 00:53:08;;;;;;;10.90;4.80;;;12.40;1.00;;;;;;5002117;28;20860;-52
2023/04/22 00:55:34;;;;;;;10.80;5.43;;;12.60;1.00;;;;;;5001255;28;20405;-52
2023/04/22 00:58:01;;;;;;;11.20;5.43;;;12.60;26.10;;;;;;5000002;28;20392;-51
2023/04/22 01:00:27;;;;;;;10.75;5.25;;;12.70;1.00;;;;;;4999243;28;20445;-51
2023/04/22 01:02:54;;;;;;;11.45;5.68;;;12.70;1.00;;;;;;5001058;28;20390;-52
2023/04/22 01:05:20;;;;;;;10.82;5.20;;;12.80;99.90;;;;;;5000450;28;20401;-52
2023/04/22 01:07:47;;;;;;;11.18;5.00;;;12.80;99.90;;;;;;4999039;28;20407;-52
2023/04/22 01:10:12;;;;;;;11.80;5.15;;;12.90;99.90;;;;;;5001165;28;20414;-52
2023/04/22 01:12:38;;;;;;;13.70;5.60;;;12.90;1.00;;;;;;4999865;28;20504;-52
2023/04/22 01:15:04;;;;;;;11.57;5.50;;;12.90;1.00;;;;;;5000872;28;21217;-52
2023/04/22 01:17:33;;;;;;;11.38;5.85;;;13.00;1.00;;;;;;4996333;28;20502;-51
2023/04/22 01:19:58;;;;;;;13.13;6.07;;;13.10;1.00;;;;;;5002501;28;20455;-53
2023/04/22 01:22:29;;;;;;;13.37;6.30;;;13.30;99.90;;;;;;5000831;28;20424;-53
2023/04/22 01:24:55;;;;;;;12.38;5.57;;;13.20;99.90;;;;;;4998160;28;20484;-52
2023/04/22 01:27:20;;;;;;;10.50;5.25;;;13.20;99.90;;;;;;5001527;28;21013;-52
2023/04/22 01:29:47;;;;;;;12.40;5.40;;;13.50;99.90;;;;;;4999475;28;20398;-53
2023/04/22 01:32:13;;;;;;;11.77;6.10;;;13.50;99.90;;;;;;4999205;28;20537;-52
2023/04/22 01:34:38;;;;;;;13.43;5.85;;;13.60;99.90;;;;;;5001458;28;20495;-52
2023/04/22 01:37:05;;;;;;;15.18;5.72;;;13.60;99.90;;;;;;4998957;28;20845;-52
2023/04/22 01:39:31;;;;;;;10.80;5.67;;;13.40;99.90;;;;;;5000397;28;20489;-52
2023/04/22 01:41:58;;;;;;;12.35;6.05;;;13.40;99.90;;;;;;4997040;28;20418;-52
2023/04/22 01:44:24;;;;;;;11.57;5.70;;;13.30;99.90;;;;;;5000069;28;20394;-52
2023/04/22 01:46:50;;;;;;;14.55;5.78;;;13.20;99.90;;;;;;4999520;28;20393;-52
2023/04/22 01:49:16;;;;;;;13.37;5.70;;;13.20;99.90;;;;;;4999693;28;20451;-52
2023/04/22 01:51:41;;;;;;;14.10;6.50;;;13.20;1.00;;;;;;4996352;28;20441;-52
2023/04/22 01:54:08;;;;;;;11.90;5.75;;;13.10;1.00;;;;;;5001819;28;20412;-52
2023/04/22 01:56:35;;;;;;;13.73;5.93;;;13.00;1.00;;;;;;5001734;28;20402;-52
2023/04/22 01:59:01;;;;;;;13.30;5.70;;;13.00;99.90;;;;;;4998483;28;20469;-52
2023/04/22 02:01:26;;;;;;;12.27;5.80;;;13.10;1.00;;;;;;5001511;28;20422;-52
2023/04/22 02:03:52;;;;;;;12.75;6.90;;;14.30;1.00;;;;;;4998939;28;20479;-52
2023/04/22 02:06:17;;;;;;;13.67;6.30;;;13.10;1.00;;;;;;5000985;28;20377;-52
2023/04/22 02:08:43;;;;;;;11.27;5.72;;;13.00;1.00;;;;;;4998590;28;20892;-52
2023/04/22 02:11:09;;;;;;;11.80;6.03;;;12.90;99.90;;;;;;4998283;28;20607;-52
2023/04/22 02:13:39;;;;;;;12.07;5.90;;;12.80;1.00;;;;;;4999628;28;20386;-52
2023/04/22 02:16:05;;;;;;;13.55;5.95;;;12.70;99.90;;;;;;4998089;28;21261;-52
2023/04/22 02:18:30;;;;;;;14.95;6.30;;;12.50;1.00;;;;;;4999482;28;20472;-52
2023/04/22 02:20:56;;;;;;;12.63;6.60;;;12.30;1.00;;;;;;4999772;28;20947;-52
2023/04/22 02:23:22;;;;;;;13.43;6.40;;;12.30;99.90;;;;;;4999674;28;20905;-52
2023/04/22 02:25:49;;;;;;;14.43;7.00;;;12.30;1.00;;;;;;4998314;28;20468;-51
2023/04/22 02:28:15;;;;;;;13.77;6.93;;;12.40;1.00;;;;;;4998770;28;20748;-52
2023/04/22 02:30:41;;;;;;;13.23;6.37;;;12.40;1.00;;;;;;4998395;28;20396;-52
2023/04/22 02:33:07;;;;;;;14.25;6.40;;;12.40;99.90;;;;;;4997105;28;20632;-52
2023/04/22 02:35:32;;;;;;;15.00;6.40;;;12.40;1.00;;;;;;4998411;28;20396;-51
2023/04/22 02:37:58;;;;;;;12.98;6.70;;;12.40;1.00;;;;;;4997605;28;20389;-51
2023/04/22 02:40:24;;;;;;;12.47;6.33;;;12.50;1.00;;;;;;4999930;28;20912;-52
2023/04/22 02:42:50;;;;;;;12.43;6.15;;;12.60;1.00;;;;;;4997024;28;20446;-52
2023/04/22 02:45:15;;;;;;;11.55;6.00;;;12.50;1.00;;;;;;4998609;28;20426;-51
2023/04/22 02:47:41;;;;;;;13.10;6.40;;;12.50;99.90;;;;;;4997606;28;20999;-51
2023/04/22 02:50:07;;;;;;;13.52;6.68;;;12.50;1.00;;;;;;4997800;28;20991;-52
2023/04/22 02:52:33;;;;;;;15.13;6.77;;;12.40;1.00;;;;;;4998528;28;20411;-52
2023/04/22 02:54:59;;;;;;;14.25;6.05;;;12.40;99.90;;;;;;4999498;28;20459;-52
2023/04/22 02:57:25;;;;;;;12.38;6.00;;;12.40;99.90;;;;;;4998021;28;20420;-52
2023/04/22 02:59:50;;;;;;;13.80;6.53;;;12.40;1.00;;;;;;4999963;28;20418;-53
2023/04/22 03:02:16;;;;;;;12.63;6.80;;;12.30;99.90;;;;;;4996938;28;20423;-51
2023/04/22 03:04:42;;;;;;;13.13;6.83;;;12.20;1.00;;;;;;4999335;28;20831;-52
2023/04/22 03:07:07;;;;;;;12.38;6.45;;;10.70;1.00;;;;;;4997246;28;20394;-52
2023/04/22 03:09:33;;;;;;;13.63;6.90;;;12.20;99.90;;;;;;4998172;28;20515;-52
2023/04/22 03:11:58;;;;;;;14.63;7.37;;;12.10;1.00;;;;;;4997788;28;20894;-51
2023/04/22 03:14:24;;;;;;;15.90;7.38;;;12.10;1.00;;;;;;4999443;28;20394;-51
2023/04/22 03:16:50;;;;;;;17.07;7.90;;;12.10;99.90;;;;;;4997932;28;20878;-52
2023/04/22 03:19:15;;;;;;;17.98;8.57;;;12.00;1.00;;;;;;4999763;28;20401;-52
2023/04/22 03:21:41;;;;;;;16.17;8.60;;;12.00;1.00;;;;;;4999811;28;20744;-51
2023/04/22 03:24:06;;;;;;;17.07;8.20;;;11.90;1.00;;;;;;4997378;28;20480;-52
2023/04/22 03:26:32;;;;;;;17.45;7.35;;;11.90;1.00;;;;;;4999333;28;20388;-52
2023/04/22 03:28:58;;;;;;;14.70;7.70;;;12.00;1.00;;;;;;4998724;28;20485;-52
2023/04/22 03:31:23;;;;;;;17.27;8.00;;;11.80;1.00;;;;;;4997523;28;20402;-51
2023/04/22 03:33:49;;;;;;;15.60;8.20;;;11.80;54.90;;;;;;4997942;28;20377;-52
2023/04/22 03:36:15;;;;;;;15.63;8.63;;;11.80;95.40;;;;;;4999271;28;20394;-51
2023/04/22 03:38:40;;;;;;;15.33;7.80;;;11.80;94.90;;;;;;4997713;28;20440;-51
2023/04/22 03:41:06;;;;;;;16.13;8.17;;;11.80;85.50;;;;;;4996850;28;20895;-52
2023/04/22 03:43:31;;;;;;;15.90;8.15;;;11.90;19.30;;;;;;4998142;28;20396;-51
2023/04/22 03:45:58;;;;;;;17.37;8.37;;;12.00;1.00;;;;;;4998375;28;20892;-51
2023/04/22 03:48:24;;;;;;;16.05;7.82;;;12.00;1.00;;;;;;4995917;28;20394;-52
2023/04/22 03:50:50;;;;;;;13.98;7.70;;;12.00;1.00;;;;;;4997692;28;20864;-52
2023/04/22 03:53:15;;;;;;;15.07;8.03;;;12.00;99.90;;;;;;4997718;28;20449;-51
2023/04/22 03:55:41;;;;;;;16.17;8.70;;;12.00;99.90;;;;;;4997498;28;20382;-52
2023/04/22 03:58:06;;;;;;;17.92;8.18;;;12.00;99.90;;;;;;4998094;28;20405;-52
2023/04/22 04:00:32;;;;;;;18.17;8.53;;;11.80;1.00;;;;;;4998668;28;20721;-52
2023/04/22 04:02:58;;;;;;;15.60;7.72;;;11.80;1.00;;;;;;4996590;28;20386;-51
2023/04/22 04:05:24;;;;;;;15.90;8.38;;;11.80;1.00;;;;;;4994329;28;20456;-51
2023/04/22 04:07:49;;;;;;;20.27;9.20;;;11.80;1.00;;;;;;4988463;28;20403;-52
2023/04/22 04:10:15;;;;;;;16.97;8.57;;;11.90;1.00;;;;;;4987386;28;20430;-51
2023/04/22 04:12:41;;;;;;;15.90;7.72;;;11.80;1.00;;;;;;4989211;28;20401;-51
2023/04/22 04:15:07;;;;;;;19.23;8.20;;;11.70;1.00;;;;;;5003614;28;20404;-51
2023/04/22 04:17:33;;;;;;;15.30;7.37;;;11.80;1.00;;;;;;5007843;28;20435;-51
2023/04/22 04:19:58;;;;;;;17.67;7.90;;;11.90;1.00;;;;;;4995514;28;20870;-51
2023/04/22 04:22:24;;;;;;;16.13;7.73;;;11.80;1.00;;;;;;5008362;28;20413;-51
2023/04/22 04:24:51;;;;;;;15.50;8.27;;;11.80;1.00;;;;;;5007742;28;20684;-52
2023/04/22 04:27:16;;;;;;;17.97;8.00;;;11.80;1.00;;;;;;5008452;28;20380;-52
2023/04/22 04:29:43;;;;;;;16.33;7.32;;;11.80;99.90;;;;;;5008311;28;20384;-52
2023/04/22 04:32:09;;;;;;;15.15;7.75;;;11.80;1.00;;;;;;5000438;28;20410;-52
2023/04/22 04:34:36;;;;;;;13.52;6.50;;;11.80;99.90;;;;;;5004358;28;20843;-52
2023/04/22 04:37:02;;;;;;;16.33;8.20;;;11.90;99.90;;;;;;4996185;28;20407;-52
2023/04/22 04:39:28;;;;;;;13.90;7.40;;;11.80;99.90;;;;;;5001790;28;20428;-52
2023/04/22 04:41:54;;;;;;;15.27;7.40;;;11.80;11.50;;;;;;5006714;28;20870;-51
2023/04/22 04:44:25;;;;;;;12.50;7.20;;;11.80;99.90;;;;;;4994465;28;20829;-51
2023/04/22 04:46:51;;;;;;;15.93;7.40;;;11.90;1.00;;;;;;4986028;28;20421;-51
2023/04/22 04:49:16;;;;;;;14.07;6.43;;;11.90;1.00;;;;;;4992585;28;20403;-51
2023/04/22 04:51:42;;;;;;;14.90;7.00;;;11.90;1.00;;;;;;5004041;28;20397;-52
2023/04/22 04:54:07;;;;;;;15.10;7.03;;;11.80;99.90;;;;;;4997185;28;20407;-52
2023/04/22 04:56:33;;;;;;;12.40;6.50;;;11.80;99.90;;;;;;5005270;28;20483;-52
2023/04/22 04:58:59;;;;;;;14.70;6.77;;;12.00;99.90;;;;;;5007446;28;20405;-52
2023/04/22 05:01:24;;;;;;;11.68;6.30;;;12.10;1.00;;;;;;4995146;28;20414;-52
2023/04/22 05:03:50;;;;;;;13.97;7.23;;;12.20;1.00;;;;;;4990607;28;20526;-52
2023/04/22 05:06:16;;;;;;;14.33;7.10;;;12.20;1.00;;;;;;4998525;28;20407;-53
2023/04/22 05:08:42;;;;;;;16.47;7.30;;;12.00;99.90;;;;;;4992718;28;20410;-52
2023/04/22 05:11:07;;;;;;;13.98;6.63;;;12.00;1.00;;;;;;5001704;28;20466;-52
2023/04/22 05:13:33;;;;;;;14.33;7.10;;;12.00;99.90;;;;;;4998934;28;20896;-52
2023/04/22 05:15:59;;;;;;;15.60;6.50;;;12.00;99.90;;;;;;5009183;28;20404;-52
2023/04/22 05:18:24;;;;;;;13.70;6.70;;;12.00;99.90;;;;;;5027908;28;20856;-52
2023/04/22 05:20:50;;;;;;;13.95;7.20;;;12.10;99.90;;;;;;5015176;28;20480;-52
2023/04/22 05:23:15;;;;;;;11.80;6.00;;;12.00;99.90;;;;;;5006289;28;20467;-53
2023/04/22 05:25:42;;;;;;;15.03;6.70;;;12.00;99.90;;;;;;5007948;28;20416;-53
2023/04/22 05:28:08;;;;;;;16.88;6.80;;;12.10;99.90;;;;;;5002612;28;21142;-52
2023/04/22 05:30:33;;;;;;;13.10;6.70;;;12.10;68.30;;;;;;5000110;28;20429;-52
2023/04/22 05:32:59;;;;;;;13.30;6.00;;;12.00;99.90;;;;;;5009377;28;20527;-52
2023/04/22 05:35:25;;;;;;;16.73;7.10;;;12.10;99.90;;;;;;5001628;28;20400;-52
2023/04/22 05:37:51;;;;;;;14.30;6.65;;;12.00;1.00;;;;;;5010952;28;20447;-52
2023/04/22 05:40:17;;;;;;;13.10;6.30;;;12.00;1.00;;;;;;5008158;28;20397;-52
2023/04/22 05:42:42;;;;;;;15.13;6.07;;;12.00;96.00;;;;;;5000233;28;20413;-52
2023/04/22 05:45:08;;;;;;;12.48;6.13;;;12.00;99.90;;;;;;5003878;28;20476;-52
2023/04/22 05:47:34;;;;;;;15.30;6.90;;;12.00;1.00;;;;;;5005847;28;20404;-52
2023/04/22 05:49:59;;;;;;;11.93;6.00;;;12.00;1.00;;;;;;5000695;28;20455;-52
2023/04/22 05:52:25;;;;;;;14.57;6.23;;;12.10;1.00;;;;;;5003422;28;20981;-52
2023/04/22 05:54:51;;;;;;;12.40;5.90;;;12.20;1.00;;;;;;5010940;28;20412;-52
2023/04/22 05:57:16;;;;;;;13.37;5.73;;;12.30;1.00;;;;;;5001102;28;20401;-52
2023/04/22 05:59:42;;;;;;;11.88;5.90;;;12.40;99.90;;;;;;5018584;28;20849;-52
2023/04/22 06:02:08;;;;;;;11.80;5.50;;;12.60;1.00;;;;;;5013127;28;20405;-52
2023/04/22 06:04:33;;;;;;;14.13;7.25;;;12.90;99.90;;;;;;5006331;28;21106;-52
2023/04/22 06:06:59;;;;;;;14.90;6.90;;;13.10;1.00;;;;;;4996503;28;20423;-52
2023/04/22 06:09:25;;;;;;;12.00;6.53;;;13.50;99.90;;;;;;5007948;28;20751;-53
2023/04/22 06:11:50;;;;;;;13.15;6.82;;;14.00;1.00;;;;;;5000606;28;20406;-52
2023/04/22 06:14:16;;;;;;;13.20;5.60;;;14.60;99.90;;;;;;4999493;28;20431;-52
2023/04/22 06:16:42;;;;;;;12.65;6.38;;;15.30;99.90;;;;;;4998230;28;20423;-52
2023/04/22 06:19:07;;;;;;;12.83;6.73;;;15.80;99.90;;;;;;4998376;28;20396;-52
2023/04/22 06:21:33;;;;;;;12.00;6.47;;;16.00;74.30;;;;;;5005190;28;20853;-52
2023/04/22 06:24:00;;;;;;;16.98;7.13;;;16.00;33.80;;;;;;5004136;28;20440;-51
2023/04/22 06:26:25;;;;;;;12.95;6.70;;;15.80;10.70;;;;;;5003615;28;20389;-51
2023/04/22 06:28:51;;;;;;;14.90;6.10;;;15.80;20.70;;;;;;4997367;28;20406;-51
2023/04/22 06:31:17;;;;;;;14.77;7.18;;;15.50;17.70;;;;;;5004825;28;20456;-52
2023/04/22 06:33:43;;;;;;;12.10;6.47;;;15.60;29.50;;;;;;5003930;28;20897;-52
2023/04/22 06:36:09;;;;;;;12.48;6.40;;;15.60;28.80;;;;;;5002722;28;20858;-51
2023/04/22 06:38:35;;;;;;;16.92;7.07;;;15.80;39.70;;;;;;5003585;28;20427;-52
2023/04/22 06:41:00;;;;;;;12.93;6.70;;;16.00;15.50;;;;;;5003049;28;20784;-52
2023/04/22 06:43:26;;;;;;;13.50;6.50;;;16.30;1.00;;;;;;4994713;28;20426;-52
2023/04/22 06:45:51;;;;;;;12.73;6.47;;;16.60;1.00;;;;;;4998766;28;20414;-52
2023/04/22 06:48:17;;;;;;;12.48;6.55;;;16.70;1.00;;;;;;5003077;28;20419;-52
2023/04/22 06:50:43;;;;;;;12.10;6.00;;;16.50;1.00;;;;;;4998579;28;20417;-51
2023/04/22 06:53:08;;;;;;;11.93;6.43;;;16.40;1.00;;;;;;4999784;28;20436;-52
2023/04/22 06:55:34;;;;;;;13.13;6.30;;;16.10;1.00;;;;;;5001300;28;20796;-50
2023/04/22 06:58:00;;;;;;;11.50;6.50;;;16.10;1.00;;;;;;5001352;28;20422;-53
2023/04/22 07:00:27;;;;;;;13.18;6.30;;;16.10;1.00;;;;;;5002320;28;20412;-54
2023/04/22 07:02:53;;;;;;;11.98;6.40;;;16.00;1.00;;;;;;4994541;28;20410;-55
2023/04/22 07:05:19;;;;;;;14.75;6.97;;;16.20;1.00;;;;;;4995738;28;20491;-59
2023/04/22 07:07:46;;;;;;;15.65;6.75;;;16.40;1.00;;;;;;4996987;28;20765;-72
2023/04/22 07:10:13;;;;;;;12.27;5.80;;;16.90;1.00;;;;;;4989933;28;20398;-73
2023/04/22 07:12:39;;;;;;;12.90;6.20;;;17.80;1.00;;;;;;4991332;28;20414;-72
2023/04/22 07:15:05;;;;;;;13.20;5.60;;;18.40;1.00;;;;;;5006832;28;20876;-73
2023/04/22 07:17:31;;;;;;;14.57;6.22;;;18.80;1.00;;;;;;5009387;28;20747;-72
2023/04/22 07:19:56;;;;;;;12.70;5.90;;;18.50;1.00;;;;;;5007154;28;20406;-73
2023/04/22 07:22:22;;;;;;;10.90;5.90;;;18.50;1.00;;;;;;5008596;28;20405;-72
2023/04/22 07:24:48;;;;;;;12.33;5.97;;;19.00;1.00;;;;;;5008838;28;20838;-58
2023/04/22 07:27:13;;;;;;;14.37;6.30;;;19.80;1.00;;;;;;5008961;28;20380;-72
2023/04/22 07:29:39;;;;;;;15.75;6.10;;;20.50;1.00;;;;;;5006981;28;20388;-69
2023/04/22 07:32:05;;;;;;;12.00;5.40;;;20.60;99.90;;;;;;4999521;28;20402;-71
2023/04/22 07:34:31;;;;;;;9.52;4.82;;;20.90;99.90;;;;;;5001434;28;20872;-69
2023/04/22 07:36:56;;;;;;;11.67;5.67;;;21.10;99.90;;;;;;5001980;28;20404;-74
2023/04/22 07:39:22;;;;;;;12.85;4.90;;;21.20;99.90;;;;;;5005602;28;20912;-71
2023/04/22 07:41:47;;;;;;;9.35;4.50;;;21.10;99.90;;;;;;5001172;28;20420;-59
2023/04/22 07:44:17;;;;;;;9.43;4.95;;;21.20;99.90;;;;;;4998739;28;20413;-72
2023/04/22 07:46:42;;;;;;;11.10;5.20;;;21.20;99.90;;;;;;5000472;28;20492;-60
2023/04/22 07:49:08;;;;;;;9.30;4.40;;;20.90;99.90;;;;;;5002315;28;20432;-71
2023/04/22 07:51:35;;;;;;;11.77;4.73;;;20.60;99.90;;;;;;4999643;28;20383;-62
2023/04/22 07:54:00;;;;;;;9.00;4.20;;;20.70;99.90;;;;;;5000191;28;20483;-64
2023/04/22 07:56:26;;;;;;;9.45;4.30;;;20.70;99.90;;;;;;4999961;28;20520;-73
2023/04/22 07:58:52;;;;;;;8.63;4.45;;;20.50;99.90;;;;;;4999915;28;20401;-74
2023/04/22 08:01:17;;;;;;;10.87;4.73;;;20.20;99.90;;;;;;5006217;28;20452;-71
2023/04/22 08:03:43;;;;;;;11.30;5.10;;;20.00;99.90;;;;;;5001729;28;20405;-68
2023/04/22 08:06:08;;;;;;;10.43;4.70;;;19.90;99.90;;;;;;4998485;28;20989;-61
2023/04/22 08:08:34;;;;;;;10.60;4.60;;;19.60;99.90;;;;;;4997810;28;20408;-70
2023/04/22 08:11:00;;;;;;;11.32;4.60;;;19.50;99.90;;;;;;4998121;28;20480;-76
2023/04/22 08:13:25;;;;;;;12.65;5.00;;;19.50;99.90;;;;;;5003431;28;20479;-75
2023/04/22 08:15:51;;;;;;;13.90;4.90;;;19.60;99.90;;;;;;4998284;28;20439;-75
2023/04/22 08:18:17;;;;;;;9.88;4.45;;;19.20;99.90;;;;;;4994558;28;20397;-74
2023/04/22 08:20:42;;;;;;;13.57;5.15;;;19.10;99.90;;;;;;5001377;28;20420;-76
2023/04/22 08:23:09;;;;;;;10.50;4.10;;;19.00;99.90;;;;;;4994879;28;20938;-60
2023/04/22 08:25:35;;;;;;;10.43;3.97;;;19.20;99.90;;;;;;5005472;28;20439;-73
2023/04/22 08:28:01;;;;;;;11.10;5.20;;;19.40;99.90;;;;;;5011184;28;20412;-71
2023/04/22 08:30:26;;;;;;;10.80;5.00;;;19.70;99.90;;;;;;5006422;28;20422;-74
2023/04/22 08:32:52;;;;;;;10.13;4.80;;;19.70;99.90;;;;;;5006947;28;20416;-73
2023/04/22 08:35:18;;;;;;;11.80;4.90;;;21.10;99.90;;;;;;5012281;28;20380;-72
2023/04/22 08:37:44;;;;;;;10.50;5.13;;;22.30;99.90;;;;;;5009391;28;20785;-73
2023/04/22 08:40:10;;;;;;;10.02;6.03;;;23.30;99.90;;;;;;4999950;28;20416;-78
2023/04/22 08:42:36;;;;;;;11.50;7.20;;;24.10;99.90;;;;;;5002699;28;20445;-75
2023/04/22 08:45:03;;;;;;;10.85;9.75;;;24.90;99.90;;;;;;5010536;28;20377;-74
2023/04/22 08:47:34;;;;;;;12.00;9.70;;;25.70;99.90;;;;;;4994206;28;20867;-73
2023/04/22 08:50:02;;;;;;;9.10;4.70;;;26.40;99.90;;;;;;5005921;28;20474;-74
2023/04/22 08:52:29;;;;;;;10.20;7.20;;;27.30;99.90;;;;;;5002754;28;20475;-76
2023/04/22 08:54:55;;;;;;;13.82;12.63;;;28.10;99.90;;;;;;5011078;28;20389;-75
2023/04/22 08:57:21;;;;;;;10.63;8.27;;;28.90;99.90;;;;;;5010507;28;20392;-62
2023/04/22 08:59:48;;;;;;;15.27;13.90;;;29.50;99.90;;;;;;5011675;28;20430;-59
2023/04/22 09:02:20;;;;;;;19.10;17.70;;;29.40;99.90;;;;;;5010831;28;20420;-75
2023/04/22 09:04:47;;;;;;;11.50;10.40;;;29.80;99.90;;;;;;5011509;28;20501;-76
2023/04/22 09:07:23;;;;;;;8.00;4.00;;;29.70;99.90;;;;;;5010908;28;20862;-75
2023/04/22 09:09:49;;;;;;;11.50;4.97;;;29.80;99.90;;;;;;5010584;28;20438;-60
2023/04/22 09:12:18;;;;;;;10.50;5.30;;;29.50;99.90;;;;;;5011307;28;20388;-73
2023/04/22 09:14:44;;;;;;;10.73;8.45;;;29.80;99.90;;;;;;5014294;28;20435;-69
2023/04/22 09:17:13;;;;;;;11.60;10.40;;;29.50;99.90;;;;;;5009266;28;20400;-74
2023/04/22 09:19:39;;;;;;;12.85;11.60;;;29.10;99.90;;;;;;5010917;28;20416;-74
2023/04/22 09:22:08;;;;;;;11.80;10.60;;;29.40;99.90;;;;;;5010622;28;20412;-72
2023/04/22 09:24:34;;;;;;;13.15;11.85;;;30.00;99.90;;;;;;5010611;28;20427;-74
2023/04/22 09:27:02;;;;;;;14.10;12.90;;;29.80;99.90;;;;;;5010485;28;20443;-74
2023/04/22 09:29:31;;;;;;;13.57;12.30;;;29.50;99.90;;;;;;5011104;28;20389;-74
2023/04/22 09:31:56;;;;;;;13.90;12.47;;;29.50;99.90;;;;;;5010599;28;20427;-74
2023/04/22 09:34:22;;;;;;;12.90;11.60;;;29.60;99.90;;;;;;5010016;28;20953;-73
2023/04/22 09:36:50;;;;;;;12.30;11.10;;;29.50;99.90;;;;;;5010759;28;20388;-60
2023/04/22 09:39:17;;;;;;;12.40;11.10;;;29.00;99.90;;;;;;5009532;28;20921;-73
2023/04/22 09:41:43;;;;;;;11.70;10.60;;;28.60;99.90;;;;;;5010574;28;20511;-73
2023/04/22 09:44:14;;;;;;;11.27;10.23;;;28.30;99.90;;;;;;5009973;28;20456;-73
2023/04/22 09:46:42;;;;;;;11.43;10.23;;;28.00;99.90;;;;;;5011185;28;20400;-71
2023/04/22 09:49:08;;;;;;;10.60;9.50;;;28.20;99.90;;;;;;5010049;28;21011;-71
2023/04/22 09:51:38;;;;;;;10.40;9.30;;;28.20;99.90;;;;;;5010919;28;20407;-71
2023/04/22 09:54:08;;;;;;;10.30;9.30;;;28.80;99.90;;;;;;5009872;28;20486;-70
2023/04/22 09:56:52;;;;;;;10.63;9.63;;;29.60;99.90;;;;;;5010925;28;20395;-72
2023/04/22 09:59:28;;;;;;;12.80;9.82;;;30.30;99.90;;;;;;5010340;28;20703;-71
2023/04/22 10:01:56;;;;;;;9.73;8.67;;;30.20;99.90;;;;;;5008550;28;20701;-70
2023/04/22 10:04:24;;;;;;;11.43;9.33;;;29.10;99.90;;;;;;5010378;28;20480;-69
2023/04/22 10:06:50;;;;;;;9.87;8.70;;;28.40;99.90;;;;;;5009994;28;20393;-58
2023/04/22 10:09:24;;;;;;;10.40;9.40;;;28.00;99.90;;;;;;5010100;28;20421;-70
2023/04/22 10:11:52;;;;;;;9.40;8.50;;;28.10;99.90;;;;;;5009425;28;20392;-58
2023/04/22 10:14:20;;;;;;;9.90;8.90;;;28.80;99.90;;;;;;5016307;28;20425;-71
2023/04/22 10:16:47;;;;;;;9.68;8.38;;;29.30;99.90;;;;;;5003429;28;20840;-71
2023/04/22 10:19:21;;;;;;;9.30;8.40;;;29.70;99.90;;;;;;4989918;28;20399;-67
2023/04/22 10:21:51;;;;;;;9.65;8.65;;;28.90;99.90;;;;;;5007906;28;20417;-70
2023/04/22 10:24:18;;;;;;;9.95;8.98;;;29.50;99.90;;;;;;4994433;28;20408;-68
2023/04/22 10:26:52;;;;;;;9.30;8.40;;;28.80;99.90;;;;;;5009807;28;20440;-71
2023/04/22 10:29:20;;;;;;;9.20;8.20;;;28.70;99.90;;;;;;5009492;28;20400;-70
2023/04/22 10:32:23;;;;;;;9.50;8.50;;;28.10;99.90;;;;;;5010053;28;20389;-70
2023/04/22 10:35:05;;;;;;;9.23;8.32;;;27.50;99.90;;;;;;5008960;28;20395;-60
2023/04/22 10:37:30;;;;;;;10.32;8.50;;;26.70;99.90;;;;;;5009770;28;20391;-69
2023/04/22 10:40:07;;;;;;;8.63;7.60;;;26.60;99.90;;;;;;5007360;28;20420;-67
2023/04/22 10:42:33;;;;;;;9.10;7.80;;;26.60;99.90;;;;;;5008991;28;20420;-72
2023/04/22 10:45:01;;;;;;;8.40;7.60;;;26.10;99.90;;;;;;5008947;28;20383;-72
2023/04/22 10:47:29;;;;;;;8.80;7.80;;;25.80;99.90;;;;;;5007862;28;20408;-58
2023/04/22 10:50:12;;;;;;;9.05;7.93;;;25.70;99.90;;;;;;5001272;28;20404;-69
2023/04/22 10:52:40;;;;;;;8.73;7.20;;;25.80;99.90;;;;;;4994866;28;20812;-70
2023/04/22 10:55:06;;;;;;;9.20;8.30;;;26.00;99.90;;;;;;4988736;28;20386;-66
2023/04/22 10:57:40;;;;;;;8.20;7.40;;;25.60;99.90;;;;;;4994091;28;20396;-71
2023/04/22 11:00:39;;;;;;;8.52;7.28;;;25.50;99.90;;;;;;5004064;28;20385;-69
2023/04/22 11:03:10;;;;;;;8.23;7.25;;;25.40;99.90;;;;;;4994451;28;20407;-69
2023/04/22 11:05:36;;;;;;;7.95;7.15;;;24.90;99.90;;;;;;4998385;28;20388;-71
2023/04/22 11:08:11;;;;;;;8.10;7.30;;;25.00;99.90;;;;;;4998943;28;20873;-71
2023/04/22 11:10:42;;;;;;;7.80;7.00;;;25.30;99.90;;;;;;5001903;28;20389;-66
2023/04/22 11:13:11;;;;;;;7.90;7.10;;;25.60;99.90;;;;;;5009430;28;20405;-70
2023/04/22 11:15:38;;;;;;;8.30;7.50;;;25.40;99.90;;;;;;5003590;28;20381;-71
2023/04/22 11:18:09;;;;;;;8.60;7.70;;;25.60;99.90;;;;;;4997093;28;20742;-71
2023/04/22 11:20:35;;;;;;;9.02;7.90;;;25.50;99.90;;;;;;4997033;28;20440;-72
2023/04/22 11:23:02;;;;;;;9.13;8.23;;;25.80;99.90;;;;;;5001185;28;20392;-71
2023/04/22 11:25:27;;;;;;;8.90;7.97;;;26.30;99.90;;;;;;5008952;28;20475;-71
2023/04/22 11:27:56;;;;;;;8.40;7.60;;;26.20;99.90;;;;;;5008109;28;20731;-62
2023/04/22 11:30:24;;;;;;;8.30;7.28;;;26.00;99.90;;;;;;4975060;28;20485;-71
2023/04/22 11:32:58;;;;;;;8.17;7.30;;;26.10;99.90;;;;;;4995971;28;20420;-58
2023/04/22 11:35:25;;;;;;;8.98;7.35;;;25.90;99.90;;;;;;5005162;28;20905;-69
2023/04/22 11:37:54;;;;;;;7.88;7.07;;;25.60;99.90;;;;;;5006960;28;20424;-58
2023/04/22 11:40:24;;;;;;;9.10;7.60;;;25.40;99.90;;;;;;4990471;28;20435;-70
2023/04/22 11:42:50;;;;;;;9.23;7.60;;;25.90;99.90;;;;;;5004687;28;20413;-59
2023/04/22 11:45:16;;;;;;;8.50;7.60;;;26.20;99.90;;;;;;4998329;28;20461;-71
2023/04/22 11:47:44;;;;;;;9.82;7.72;;;26.30;99.90;;;;;;4992401;28;20812;-70
2023/04/22 11:50:12;;;;;;;8.05;7.25;;;26.10;99.90;;;;;;5004719;28;20496;-66
2023/04/22 11:52:41;;;;;;;8.65;7.75;;;25.60;99.90;;;;;;5009398;28;20459;-70
2023/04/22 11:55:10;;;;;;;8.50;7.32;;;25.80;99.90;;;;;;5003215;28;20546;-71
2023/04/22 11:57:35;;;;;;;10.30;7.30;;;25.90;99.90;;;;;;5008598;28;20389;-71
2023/04/22 12:00:01;;;;;;;7.40;6.50;;;26.50;99.90;;;;;;5002177;28;21016;-69
2023/04/22 12:02:27;;;;;;;9.00;7.75;;;26.20;99.90;;;;;;5001661;28;20412;-70
2023/04/22 12:04:52;;;;;;;9.45;7.60;;;25.80;99.90;;;;;;5000822;28;20449;-68
2023/04/22 12:07:18;;;;;;;7.88;7.07;;;25.70;99.90;;;;;;5007824;28;20433;-70
2023/04/22 12:09:44;;;;;;;7.90;7.10;;;25.90;99.90;;;;;;5005711;28;20406;-69
2023/04/22 12:12:10;;;;;;;7.70;6.88;;;25.40;99.90;;;;;;5009795;28;20389;-68
2023/04/22 12:14:36;;;;;;;9.30;7.10;;;25.20;99.90;;;;;;5026723;28;20401;-69
2023/04/22 12:17:08;;;;;;;7.90;7.10;;;25.00;99.90;;;;;;5030389;28;20701;-69
2023/04/22 12:19:33;;;;;;;8.30;7.25;;;25.00;99.90;;;;;;5032166;28;20387;-69
2023/04/22 12:21:59;;;;;;;8.90;7.67;;;25.00;99.90;;;;;;5030713;28;20440;-68
2023/04/22 12:24:29;;;;;;;8.80;7.90;;;25.20;99.90;;;;;;5012073;28;20401;-69
2023/04/22 12:26:55;;;;;;;9.63;8.20;;;24.60;99.90;;;;;;5012158;28;20412;-68
2023/04/22 12:29:31;;;;;;;8.00;7.20;;;24.60;99.90;;;;;;5012331;28;20445;-69
2023/04/22 12:31:57;;;;;;;11.13;8.20;;;24.30;99.90;;;;;;5012277;28;20392;-68
2023/04/22 12:34:23;;;;;;;8.45;7.65;;;24.30;99.90;;;;;;5012612;28;20400;-68
2023/04/22 12:36:49;;;;;;;8.90;8.00;;;24.10;99.90;;;;;;5012485;28;20389;-60
2023/04/22 12:39:15;;;;;;;9.90;7.97;;;24.00;99.90;;;;;;5011298;28;20428;-68
2023/04/22 12:41:41;;;;;;;8.25;7.43;;;24.20;99.90;;;;;;5012128;28;20766;-67